Time;durP1;ratioP1;P1;durP2;ratioP2;P2;SDS_P1;SDS_P2;PMS_P1;PMS_P2;Temp;Humidity;BMP_temperature;BMP_pressure;BME280_temperature;BME280_humidity;BME280_pressure;Samples;Min_cycle;Max_cycle;Signal;HPM_P1;HPM_P2
2021/01/28 00:02:07;;;;;;;27.55;12.43;;;;;;;-2.28;73.06;96156.50;4986060;28;20034;-63
2021/01/28 00:04:33;;;;;;;28.92;12.27;;;;;;;-1.79;72.32;96230.31;4986711;28;20031;-64
2021/01/28 00:06:58;;;;;;;29.75;13.35;;;;;;;-1.70;73.81;96228.47;4986588;28;20038;-64
2021/01/28 00:09:23;;;;;;;27.98;12.90;;;;;;;-2.34;72.91;96142.28;4986958;28;20101;-64
2021/01/28 00:11:49;;;;;;;33.72;15.75;;;;;;;-1.70;73.64;96239.34;4986704;28;20053;-64
2021/01/28 00:14:14;;;;;;;23.85;11.32;;;;;;;-1.81;72.64;96240.72;4985176;28;20058;-65
2021/01/28 00:16:40;;;;;;;30.38;12.88;;;;;;;-1.72;71.89;96257.84;4986109;28;20050;-64
2021/01/28 00:19:05;;;;;;;37.08;14.75;;;;;;;-2.13;73.66;96235.56;4986669;28;20051;-63
2021/01/28 00:21:30;;;;;;;31.67;15.50;;;;;;;-1.86;74.44;96251.69;4986238;28;20136;-65
2021/01/28 00:23:56;;;;;;;34.50;15.90;;;;;;;-2.04;74.01;96217.44;4986508;28;20034;-63
2021/01/28 00:26:21;;;;;;;33.03;13.88;;;;;;;-2.66;74.64;96183.22;4985032;28;20038;-64
2021/01/28 00:28:47;;;;;;;34.33;13.45;;;;;;;-2.04;75.70;96260.81;4986225;28;20125;-63
2021/01/28 00:31:12;;;;;;;39.70;18.63;;;;;;;-2.13;75.82;96235.56;4984952;28;20467;-63
2021/01/28 00:33:38;;;;;;;31.23;14.02;;;;;;;-2.76;73.92;96113.00;5001426;28;20047;-63
2021/01/28 00:36:05;;;;;;;30.33;13.38;;;;;;;-1.89;73.06;96257.75;4986168;28;20497;-63
2021/01/28 00:38:33;;;;;;;24.42;10.45;;;;;;;-1.92;73.41;96252.13;4986158;28;20141;-63
2021/01/28 00:41:00;;;;;;;25.45;12.25;;;;;;;-1.98;72.90;96278.59;4986266;28;20065;-62
2021/01/28 00:43:26;;;;;;;26.45;11.98;;;;;;;-2.83;73.74;96134.31;4986081;28;20513;-62
2021/01/28 00:45:52;;;;;;;32.50;13.52;;;;;;;-2.23;73.00;96241.22;4985702;28;20045;-62
2021/01/28 00:48:19;;;;;;;31.00;14.25;;;;;;;-2.30;73.05;96235.47;5000900;28;20133;-62
2021/01/28 00:50:46;;;;;;;27.00;10.57;;;;;;;-2.12;71.79;96258.84;4985904;28;20030;-64
2021/01/28 00:53:15;;;;;;;39.92;16.90;;;;;;;-2.18;73.55;96256.59;4986158;28;20061;-64
2021/01/28 00:55:41;;;;;;;27.23;10.90;;;;;;;-2.06;74.05;96246.78;4984288;28;20416;-62
2021/01/28 00:58:07;;;;;;;23.02;10.68;;;;;;;-2.11;73.75;96255.06;4985610;28;20309;-64
2021/01/28 01:00:39;;;;;;;40.25;16.92;;;;;;;-2.14;74.27;96255.66;4984075;28;20034;-63
2021/01/28 01:03:05;;;;;;;49.50;17.73;;;;;;;-2.16;73.81;96255.16;4985985;28;20390;-63
2021/01/28 01:05:32;;;;;;;41.33;19.27;;;;;;;-2.16;74.52;96257.06;4984142;28;20471;-63
2021/01/28 01:07:59;;;;;;;87.20;36.47;;;;;;;-2.24;75.25;96253.19;4984076;28;20421;-64
2021/01/28 01:10:36;;;;;;;41.25;16.60;;;;;;;-2.27;74.44;96242.97;4985717;28;20049;-63
2021/01/28 01:13:02;;;;;;;46.10;18.25;;;;;;;-2.46;73.24;96226.09;4986150;28;20426;-62
2021/01/28 01:15:27;;;;;;;35.85;13.85;;;;;;;-2.65;73.54;96179.38;4985851;28;20030;-63
2021/01/28 01:17:53;;;;;;;26.58;11.82;;;;;;;-2.60;73.34;96187.41;4985756;28;20069;-63
2021/01/28 01:20:21;;;;;;;43.70;15.35;;;;;;;-2.27;73.77;96250.31;4985563;28;20113;-63
2021/01/28 01:22:46;;;;;;;21.92;11.05;;;;;;;-2.22;74.30;96242.84;4985565;28;20033;-63
2021/01/28 01:25:14;;;;;;;19.35;8.90;;;;;;;-2.25;73.38;96254.31;5000202;28;20038;-62
2021/01/28 01:27:40;;;;;;;20.80;9.88;;;;;;;-3.53;73.33;96022.28;4983682;28;20418;-64
2021/01/28 01:30:06;;;;;;;31.85;16.77;;;;;;;-2.34;73.45;96212.75;4985431;28;20048;-63
2021/01/28 01:32:32;;;;;;;22.80;10.85;;;;;;;-2.18;73.21;96257.38;4983575;28;20046;-64
2021/01/28 01:34:57;;;;;;;28.80;13.43;;;;;;;-2.17;72.48;96245.44;4985127;28;20050;-63
2021/01/28 01:37:24;;;;;;;24.58;10.65;;;;;;;-2.25;72.91;96248.91;4985076;28;20418;-64
2021/01/28 01:39:49;;;;;;;26.52;12.38;;;;;;;-2.35;73.07;96254.56;4985760;28;20125;-64
2021/01/28 01:42:15;;;;;;;23.85;9.65;;;;;;;-2.31;73.61;96238.47;4983408;28;20184;-64
2021/01/28 01:44:40;;;;;;;24.33;11.82;;;;;;;-2.78;73.42;96196.50;4984038;28;20043;-64
2021/01/28 01:47:46;;;;;;;26.35;12.32;;;;;;;-2.29;74.31;96247.91;4965712;28;20621;-64
2021/01/28 01:50:24;;;;;;;23.60;11.20;;;;;;;-2.63;74.86;96193.44;4965983;28;20553;-63
2021/01/28 01:52:50;;;;;;;24.38;10.18;;;;;;;-3.23;73.41;96103.56;4965999;28;20624;-62
2021/01/28 01:55:15;;;;;;;23.17;9.90;;;;;;;-2.29;73.29;96250.59;4965876;28;20045;-64
2021/01/28 01:57:41;;;;;;;29.90;11.63;;;;;;;-2.18;74.50;96276.38;4965855;28;20030;-64
2021/01/28 02:00:13;;;;;;;30.45;11.93;;;;;;;-2.69;74.14;96167.56;4965738;28;20047;-64
2021/01/28 02:02:41;;;;;;;31.67;12.77;;;;;;;-2.14;73.25;96261.09;4965818;28;20039;-64
2021/01/28 02:05:12;;;;;;;37.42;15.32;;;;;;;-2.16;72.32;96252.47;4965394;28;20502;-63
2021/01/28 02:07:38;;;;;;;80.25;30.38;;;;;;;-3.06;73.86;96102.91;4965957;28;20026;-63
2021/01/28 02:10:10;;;;;;;103.38;36.88;;;;;;;-2.04;74.18;96258.13;4966185;28;20038;-63
2021/01/28 02:12:36;;;;;;;68.75;26.92;;;;;;;-2.14;73.36;96261.09;4965721;28;20054;-63
2021/01/28 02:15:02;;;;;;;48.67;18.73;;;;;;;-2.17;74.49;96256.28;4965926;28;20051;-64
2021/01/28 02:17:28;;;;;;;56.33;22.13;;;;;;;-2.14;75.17;96257.56;4965270;28;20050;-63
2021/01/28 02:20:28;;;;;;;64.32;27.45;;;;;;;-1.99;74.06;96274.28;4964124;28;20157;-63
2021/01/28 02:23:35;;;;;;;110.03;40.58;;;;;;;-2.12;72.97;96272.41;4963550;28;20465;-63
2021/01/28 02:26:01;;;;;;;52.35;19.80;;;;;;;-2.21;73.79;96277.00;4972393;28;20465;-63
2021/01/28 02:28:27;;;;;;;97.72;33.90;;;;;;;-2.29;73.28;96269.59;4987027;28;20046;-63
2021/01/28 02:30:57;;;;;;;97.97;31.27;;;;;;;-2.32;74.44;96278.34;4988873;28;20042;-63
2021/01/28 02:33:37;;;;;;;75.18;23.80;;;;;;;-2.35;74.15;96276.25;4987005;28;20049;-62
2021/01/28 02:36:03;;;;;;;122.00;42.25;;;;;;;-2.49;73.96;96232.13;4988113;28;20038;-63
2021/01/28 02:38:28;;;;;;;73.88;23.70;;;;;;;-4.67;72.21;95901.00;4988301;28;20409;-62
2021/01/28 02:40:54;;;;;;;70.05;22.73;;;;;;;-2.91;73.14;96210.09;4987670;28;20034;-63
2021/01/28 02:43:20;;;;;;;82.57;26.25;;;;;;;-3.20;74.37;96165.22;4969265;28;20049;-62
2021/01/28 02:45:45;;;;;;;51.58;19.05;;;;;;;-2.56;73.89;96272.38;4968788;28;20113;-63
2021/01/28 02:48:11;;;;;;;42.97;14.23;;;;;;;-2.52;72.10;96275.31;4969119;28;20042;-63
2021/01/28 02:50:37;;;;;;;39.75;14.27;;;;;;;-3.03;72.80;96199.78;4966953;28;20039;-62
2021/01/28 02:53:06;;;;;;;44.97;17.10;;;;;;;-2.52;74.27;96303.22;4983894;28;20421;-63
2021/01/28 02:55:34;;;;;;;30.70;12.98;;;;;;;-2.55;73.99;96298.41;4968813;28;20034;-64
2021/01/28 02:58:00;;;;;;;35.80;15.50;;;;;;;-2.45;74.02;96306.28;4983909;28;20524;-64
2021/01/28 03:00:32;;;;;;;39.22;19.23;;;;;;;-2.48;73.09;96309.63;4968441;28;20030;-63
2021/01/28 03:03:01;;;;;;;27.90;10.07;;;;;;;-2.63;74.15;96307.25;4983461;28;20513;-63
2021/01/28 03:05:26;;;;;;;30.55;13.13;;;;;;;-3.16;75.36;96239.31;4968464;28;20035;-63
2021/01/28 03:07:52;;;;;;;27.65;10.68;;;;;;;-2.65;74.65;96301.34;4966983;28;20062;-63
2021/01/28 03:10:20;;;;;;;36.08;16.08;;;;;;;-2.90;75.38;96269.38;4967983;28;20083;-64
2021/01/28 03:12:46;;;;;;;42.65;17.50;;;;;;;-2.75;75.23;96293.41;4968662;28;20035;-63
2021/01/28 03:15:13;;;;;;;30.38;11.43;;;;;;;-2.90;76.18;96301.06;4968578;28;20086;-64
2021/01/28 03:17:39;;;;;;;25.10;10.63;;;;;;;-4.15;75.39;96101.50;4967867;28;20055;-63
2021/01/28 03:20:06;;;;;;;43.40;18.02;;;;;;;-3.00;74.49;96345.41;4968626;28;20080;-63
2021/01/28 03:22:32;;;;;;;39.53;17.27;;;;;;;-2.81;75.88;96313.59;4968152;28;20022;-64
2021/01/28 03:24:57;;;;;;;17.40;8.48;;;;;;;-2.83;75.93;96312.31;4968504;28;20057;-63
2021/01/28 03:27:23;;;;;;;30.15;12.77;;;;;;;-2.83;75.66;96313.13;4979786;28;20037;-63
2021/01/28 03:29:48;;;;;;;48.80;20.20;;;;;;;-2.83;75.77;96302.28;4987805;28;20096;-64
2021/01/28 03:32:13;;;;;;;51.67;21.70;;;;;;;-2.93;76.04;96301.69;4987275;28;20372;-63
2021/01/28 03:34:39;;;;;;;33.08;15.43;;;;;;;-2.98;75.80;96310.72;4987353;28;20421;-63
2021/01/28 03:37:04;;;;;;;22.38;10.77;;;;;;;-4.16;76.13;96135.03;4986070;28;20042;-62
2021/01/28 03:39:30;;;;;;;40.95;16.27;;;;;;;-3.44;74.81;96242.34;4987911;28;20031;-63
2021/01/28 03:41:55;;;;;;;111.68;43.65;;;;;;;-3.51;75.53;96258.97;4987060;28;20133;-63
2021/01/28 03:44:21;;;;;;;29.45;14.27;;;;;;;-3.04;75.88;96290.25;4987802;28;20400;-63
2021/01/28 03:46:46;;;;;;;39.55;17.25;;;;;;;-2.86;75.08;96312.91;4987553;28;20041;-64
2021/01/28 03:49:13;;;;;;;39.75;17.50;;;;;;;-2.87;76.56;96306.69;4987565;28;20046;-62
2021/01/28 03:51:39;;;;;;;32.28;16.73;;;;;;;-2.75;76.19;96304.25;4987040;28;20543;-62
2021/01/28 03:54:04;;;;;;;50.10;21.92;;;;;;;-3.39;75.51;96236.84;4987170;28;20034;-63
2021/01/28 03:56:29;;;;;;;34.50;12.77;;;;;;;-3.00;76.29;96318.34;4987020;28;20467;-61
2021/01/28 03:58:55;;;;;;;27.70;10.88;;;;;;;-3.63;76.51;96228.91;4985507;28;20034;-61
2021/01/28 04:01:20;;;;;;;31.23;10.93;;;;;;;-3.27;75.37;96312.91;4986812;28;20053;-60
2021/01/28 04:03:46;;;;;;;98.82;30.60;;;;;;;-3.13;75.66;96319.16;4985504;28;20035;-61
2021/01/28 04:06:12;;;;;;;20.05;8.60;;;;;;;-3.91;75.99;96280.59;4986333;28;20061;-60
2021/01/28 04:08:37;;;;;;;16.80;7.65;;;;;;;-3.40;76.72;96319.94;4986707;28;20038;-61
2021/01/28 04:11:03;;;;;;;39.65;13.27;;;;;;;-3.37;76.29;96315.84;4986373;28;20068;-59
2021/01/28 04:13:28;;;;;;;25.92;9.73;;;;;;;-3.37;76.39;96318.56;4986819;28;20041;-61
2021/01/28 04:15:53;;;;;;;33.95;13.45;;;;;;;-4.62;75.73;96125.06;4986451;28;20044;-61
2021/01/28 04:18:20;;;;;;;30.88;11.93;;;;;;;-3.49;76.73;96320.94;4986839;28;20790;-61
2021/01/28 04:20:46;;;;;;;24.23;9.75;;;;;;;-3.55;76.53;96327.53;4986520;28;20034;-60
2021/01/28 04:23:12;;;;;;;21.77;9.55;;;;;;;-6.53;76.85;95854.22;4986240;28;20525;-60
2021/01/28 04:25:37;;;;;;;21.48;10.85;;;;;;;-3.66;77.37;96332.34;4986680;28;20061;-60
2021/01/28 04:28:03;;;;;;;24.63;10.38;;;;;;;-3.69;77.76;96326.72;4985940;28;20044;-61
2021/01/28 04:30:31;;;;;;;29.20;13.15;;;;;;;-3.63;77.62;96333.63;5001250;28;20041;-61
2021/01/28 04:32:57;;;;;;;25.60;11.23;;;;;;;-3.62;77.11;96398.28;4984944;28;20030;-63
2021/01/28 04:35:23;;;;;;;31.23;12.52;;;;;;;-3.90;75.92;96298.41;4986321;28;20042;-61
2021/01/28 04:37:49;;;;;;;44.25;19.73;;;;;;;-4.14;76.37;96259.91;4986636;28;20097;-60
2021/01/28 04:40:27;;;;;;;58.35;25.40;;;;;;;-3.74;78.58;96311.38;4985819;28;20052;-60
2021/01/28 04:42:53;;;;;;;52.10;24.67;;;;;;;-3.39;78.61;96326.16;4984912;28;20030;-60
2021/01/28 04:45:22;;;;;;;47.25;22.42;;;;;;;-3.33;77.59;96319.53;4984612;28;20754;-61
2021/01/28 04:47:55;;;;;;;83.22;30.25;;;;;;;-3.48;76.53;96301.69;4985830;28;20124;-60
2021/01/28 04:50:26;;;;;;;52.92;22.35;;;;;;;-3.65;76.47;96284.44;4986490;28;20034;-61
2021/01/28 04:52:56;;;;;;;50.90;23.15;;;;;;;-3.76;76.84;96258.69;5001188;28;20421;-61
2021/01/28 04:55:34;;;;;;;32.22;14.77;;;;;;;-3.15;76.46;96370.09;4984265;28;20535;-62
2021/01/28 04:57:59;;;;;;;45.20;19.30;;;;;;;-3.29;74.97;96325.97;5000858;28;20089;-58
2021/01/28 05:00:24;;;;;;;35.80;16.27;;;;;;;-3.60;75.13;96295.16;4984200;28;20456;-61
2021/01/28 05:02:58;;;;;;;33.58;13.77;;;;;;;-3.30;76.17;96348.72;4986175;28;20033;-59
2021/01/28 05:05:23;;;;;;;29.90;13.68;;;;;;;-3.22;76.00;96350.72;4985441;28;20164;-61
2021/01/28 05:07:49;;;;;;;41.30;17.48;;;;;;;-3.12;75.32;96353.25;4985849;28;20114;-63
2021/01/28 05:10:26;;;;;;;39.38;16.40;;;;;;;-2.98;74.69;96354.06;4985383;28;20026;-61
2021/01/28 05:13:03;;;;;;;125.97;40.83;;;;;;;-2.97;74.20;96363.78;4985482;28;20034;-61
2021/01/28 05:15:37;;;;;;;95.18;32.83;;;;;;;-3.04;73.77;96366.09;4985670;28;20045;-60
2021/01/28 05:18:32;;;;;;;67.13;26.45;;;;;;;-3.07;75.67;96366.69;4985727;28;20054;-60
2021/01/28 05:21:25;;;;;;;62.03;26.70;;;;;;;-3.41;75.25;96296.69;4985779;28;20379;-60
2021/01/28 05:24:00;;;;;;;42.25;18.95;;;;;;;-2.83;74.76;96375.44;4983516;28;20056;-61
2021/01/28 05:26:36;;;;;;;34.25;16.25;;;;;;;-3.05;75.02;96375.31;4985607;28;20093;-60
2021/01/28 05:29:24;;;;;;;39.53;16.45;;;;;;;-2.80;75.67;96372.13;4984042;28;20967;-60
2021/01/28 05:31:52;;;;;;;35.38;16.35;;;;;;;-2.92;75.49;96336.59;4985505;28;20042;-59
2021/01/28 05:34:24;;;;;;;31.38;14.95;;;;;;;-2.60;73.93;96365.47;4983802;28;20038;-60
2021/01/28 05:36:57;;;;;;;40.08;16.15;;;;;;;-2.48;74.72;96361.13;4985098;28;20034;-59
2021/01/28 05:39:31;;;;;;;38.15;16.55;;;;;;;-3.23;73.85;96262.50;4984047;28;20484;-62
2021/01/28 05:42:18;;;;;;;46.38;21.35;;;;;;;-2.92;74.22;96320.34;4985538;28;20457;-61
2021/01/28 05:44:44;;;;;;;59.03;26.25;;;;;;;-2.42;74.32;96384.31;4985628;28;20044;-61
2021/01/28 05:47:18;;;;;;;93.70;36.17;;;;;;;-2.41;74.13;96391.34;4984936;28;20026;-60
2021/01/28 05:49:44;;;;;;;135.00;53.03;;;;;;;-2.36;74.01;96383.09;4983415;28;20041;-59
2021/01/28 05:52:22;;;;;;;248.52;80.47;;;;;;;-2.30;74.11;96387.31;4983557;28;20076;-59
2021/01/28 05:55:14;;;;;;;173.40;57.38;;;;;;;-2.31;73.61;96393.81;4985498;28;20034;-60
2021/01/28 05:58:01;;;;;;;157.75;53.05;;;;;;;-2.43;75.26;96390.84;4983793;28;20437;-60
2021/01/28 06:00:51;;;;;;;96.30;40.47;;;;;;;-2.99;75.51;96303.72;4987462;28;20030;-61
2021/01/28 06:03:19;;;;;;;86.65;37.78;;;;;;;-2.19;73.25;96399.53;4989180;28;20047;-61
2021/01/28 06:05:56;;;;;;;78.57;34.65;;;;;;;-2.14;73.07;96390.47;4987526;28;20042;-60
2021/01/28 06:08:25;;;;;;;94.82;42.13;;;;;;;-2.22;73.55;96407.47;4989832;28;20046;-59
2021/01/28 06:10:59;;;;;;;96.25;39.97;;;;;;;-2.16;72.90;96407.06;4988526;28;20576;-60
2021/01/28 06:13:31;;;;;;;48.47;23.00;;;;;;;-2.32;71.58;96416.63;4986021;28;20461;-63
2021/01/28 06:16:23;;;;;;;41.60;19.35;;;;;;;-2.40;72.12;96411.91;4986764;28;20409;-61
2021/01/28 06:19:20;;;;;;;31.60;14.95;;;;;;;-2.32;71.45;96422.06;5005020;28;20069;-63
2021/01/28 06:21:56;;;;;;;58.38;23.80;;;;;;;-2.45;71.40;96417.44;4987675;28;20509;-60
2021/01/28 06:24:47;;;;;;;52.78;19.88;;;;;;;-2.51;71.42;96426.00;4988551;28;20053;-60
2021/01/28 06:27:47;;;;;;;90.90;35.05;;;;;;;-2.56;71.48;96413.34;4988356;28;20033;-62
2021/01/28 06:30:31;;;;;;;64.45;28.70;;;;;;;-2.53;71.33;96418.16;4988392;28;20038;-64
2021/01/28 06:33:24;;;;;;;72.00;29.38;;;;;;;-2.60;70.54;96431.31;4988569;28;20110;-63
2021/01/28 06:36:13;;;;;;;179.82;65.40;;;;;;;-3.43;70.77;96346.81;5019468;28;20121;-65
2021/01/28 06:38:51;;;;;;;187.10;70.53;;;;;;;-2.63;71.87;96423.78;4988681;28;20042;-68
2021/01/28 06:41:23;;;;;;;152.48;56.25;;;;;;;-3.78;71.76;96236.53;5020246;28;20043;-68
2021/01/28 06:44:03;;;;;;;113.75;51.03;;;;;;;-2.93;72.64;96356.66;4987290;28;20042;-67
2021/01/28 06:46:50;;;;;;;119.43;60.63;;;;;;;-2.36;71.76;96431.91;4985049;28;20057;-66
2021/01/28 06:49:29;;;;;;;94.38;39.78;;;;;;;-2.45;71.81;96427.50;4973268;28;20105;-67
2021/01/28 06:52:05;;;;;;;78.95;35.13;;;;;;;-2.90;71.73;96366.91;4985715;28;20509;-60
2021/01/28 06:54:57;;;;;;;104.80;43.47;;;;;;;-2.11;71.98;96428.66;4987688;28;20480;-63
2021/01/28 06:57:38;;;;;;;112.82;51.40;;;;;;;-1.71;70.01;96432.34;4982328;28;20049;-62
2021/01/28 07:00:24;;;;;;;136.45;61.97;;;;;;;-1.34;68.68;96425.75;4987178;28;20057;-66
2021/01/28 07:03:02;;;;;;;122.07;52.00;;;;;;;-1.16;67.89;96432.91;4987286;28;20026;-65
2021/01/28 07:05:43;;;;;;;86.45;39.13;;;;;;;-1.04;66.92;96439.34;4987142;28;20583;-62
2021/01/28 07:08:23;;;;;;;124.88;51.67;;;;;;;-0.89;65.24;96435.44;5016961;28;20083;-62
2021/01/28 07:10:48;;;;;;;1189.93;167.80;;;;;;;-0.67;65.94;96430.75;4985231;28;20050;-61
2021/01/28 07:13:37;;;;;;;182.98;40.90;;;;;;;-1.12;65.11;96349.66;4987847;28;20129;-65
2021/01/28 07:16:29;;;;;;;45.72;21.15;;;;;;;-0.42;64.64;96442.84;4987519;28;20129;-62
2021/01/28 07:19:05;;;;;;;34.35;17.40;;;;;;;-1.21;62.92;96257.25;4985589;28;20137;-62
2021/01/28 07:21:33;;;;;;;82.18;34.15;;;;;;;0.28;60.14;96445.38;4986041;28;20417;-66
2021/01/28 07:24:03;;;;;;;77.65;35.17;;;;;;;0.35;61.14;96429.38;4987904;28;20046;-68
2021/01/28 07:27:04;;;;;;;42.75;22.10;;;;;;;0.99;59.95;96456.44;4986206;28;20043;-59
2021/01/28 07:29:29;;;;;;;55.75;28.02;;;;;;;1.16;58.61;96453.66;4955326;28;20063;-61
2021/01/28 07:31:55;;;;;;;52.05;26.00;;;;;;;0.85;56.18;96393.13;4966083;28;20038;-65
2021/01/28 07:34:21;;;;;;;45.60;22.73;;;;;;;1.24;57.64;96447.38;4967834;28;20038;-62
2021/01/28 07:36:49;;;;;;;49.90;25.02;;;;;;;-0.88;57.52;96091.88;4967705;28;20037;-68
2021/01/28 07:39:29;;;;;;;64.13;32.30;;;;;;;1.53;56.50;96433.78;4986638;28;20090;-62
2021/01/28 07:41:57;;;;;;;46.90;25.63;;;;;;;1.77;55.51;96411.34;4986957;28;20030;-63
2021/01/28 07:44:29;;;;;;;42.38;22.80;;;;;;;2.21;55.42;96429.09;4986436;28;20080;-61
2021/01/28 07:46:56;;;;;;;41.83;20.23;;;;;;;2.62;54.96;96423.63;4986620;28;20035;-63
2021/01/28 07:49:31;;;;;;;43.63;23.70;;;;;;;2.79;52.01;96429.75;4986876;28;20038;-63
2021/01/28 07:52:02;;;;;;;33.60;16.52;;;;;;;2.91;51.63;96428.97;5000498;28;20030;-69
2021/01/28 07:54:27;;;;;;;49.85;24.45;;;;;;;2.72;53.09;96436.88;4987500;28;20484;-68
2021/01/28 07:56:57;;;;;;;47.45;24.33;;;;;;;2.69;53.28;96437.53;4972616;28;20038;-65
2021/01/28 07:59:38;;;;;;;48.70;26.05;;;;;;;2.48;53.38;96437.56;4965648;28;20859;-65
2021/01/28 08:02:15;;;;;;;44.72;25.30;;;;;;;3.08;52.11;96434.31;4975801;28;20038;-64
2021/01/28 08:04:48;;;;;;;46.00;22.40;;;;;;;3.03;51.76;96448.19;4984339;28;20508;-63
2021/01/28 08:07:22;;;;;;;39.95;21.25;;;;;;;2.96;52.02;96469.81;4986358;28;20089;-63
2021/01/28 08:09:52;;;;;;;37.05;20.33;;;;;;;2.75;53.23;96458.09;4985008;28;20101;-67
2021/01/28 08:12:34;;;;;;;36.20;18.50;;;;;;;2.85;50.68;96433.88;4989000;28;20041;-64
2021/01/28 08:15:02;;;;;;;26.17;13.48;;;;;;;3.23;49.80;96450.06;5000437;28;20034;-64
2021/01/28 08:17:32;;;;;;;23.70;12.25;;;;;;;3.46;49.06;96454.03;4985795;28;20042;-61
2021/01/28 08:20:35;;;;;;;26.20;13.65;;;;;;;3.57;48.59;96457.94;4986722;28;20510;-73
2021/01/28 08:23:13;;;;;;;22.83;12.85;;;;;;;0.09;49.43;95920.31;4946397;28;20125;-61
2021/01/28 08:25:49;;;;;;;19.42;10.57;;;;;;;3.16;49.16;96462.72;4959507;28;20039;-66
2021/01/28 08:28:15;;;;;;;22.50;10.48;;;;;;;3.22;49.37;96467.63;4967885;28;20065;-67
2021/01/28 08:30:42;;;;;;;13.13;7.40;;;;;;;2.97;49.92;96463.22;4981867;28;20026;-63
2021/01/28 08:33:13;;;;;;;44.63;19.20;;;;;;;3.15;49.39;96461.13;5000834;28;20025;-65
2021/01/28 08:35:47;;;;;;;66.43;25.25;;;;;;;3.32;50.49;96444.53;4985437;28;20056;-64
2021/01/28 08:38:14;;;;;;;14.13;7.40;;;;;;;3.55;49.54;96449.25;4985484;28;20034;-66
2021/01/28 08:40:42;;;;;;;13.20;7.40;;;;;;;3.32;49.31;96460.94;4984659;28;20045;-62
2021/01/28 08:43:18;;;;;;;12.02;6.57;;;;;;;3.03;47.64;96393.47;4984666;28;20034;-62
2021/01/28 08:45:44;;;;;;;13.43;7.25;;;;;;;2.18;48.42;96362.25;4985547;28;20050;-60
2021/01/28 08:48:14;;;;;;;9.60;5.40;;;;;;;3.22;47.37;96473.13;4985515;28;20026;-60
2021/01/28 08:50:40;;;;;;;10.30;5.15;;;;;;;2.45;47.72;96369.13;4985158;28;20038;-62
2021/01/28 08:53:23;;;;;;;9.80;5.30;;;;;;;3.26;47.66;96474.03;4985834;28;20041;-64
2021/01/28 08:55:49;;;;;;;13.40;6.28;;;;;;;2.72;48.60;96421.28;4985402;28;20034;-65
2021/01/28 08:58:31;;;;;;;11.85;5.80;;;;;;;3.04;48.32;96373.19;4983930;28;20046;-60
2021/01/28 09:01:01;;;;;;;12.27;6.45;;;;;;;3.87;47.19;96467.50;4985652;28;20033;-68
2021/01/28 09:03:31;;;;;;;13.32;7.03;;;;;;;3.42;46.89;96379.19;4983807;28;20046;-66
2021/01/28 09:06:01;;;;;;;17.42;7.47;;;;;;;3.91;46.59;96457.50;4985388;28;20026;-62
2021/01/28 09:08:38;;;;;;;12.80;7.15;;;;;;;4.03;46.01;96509.53;5016236;28;20097;-64
2021/01/28 09:11:18;;;;;;;19.10;10.32;;;;;;;4.17;47.85;96444.22;4985302;28;20054;-63
2021/01/28 09:14:18;;;;;;;22.38;10.00;;;;;;;4.21;47.83;96456.13;4985367;28;20070;-65
2021/01/28 09:16:56;;;;;;;21.10;10.93;;;;;;;4.11;47.09;96451.09;4984959;28;20073;-65
2021/01/28 09:19:22;;;;;;;19.23;11.05;;;;;;;4.28;47.88;96456.31;4977472;28;20034;-64
2021/01/28 09:21:55;;;;;;;17.50;9.85;;;;;;;4.49;45.41;96462.47;4964255;28;20026;-61
2021/01/28 09:24:25;;;;;;;18.92;11.40;;;;;;;3.58;45.98;96306.19;4964112;28;20501;-67
2021/01/28 09:27:16;;;;;;;23.10;13.10;;;;;;;4.36;46.62;96462.84;4965274;28;20793;-65
2021/01/28 09:29:42;;;;;;;11.05;5.88;;;;;;;2.93;48.36;96486.88;4965437;28;20177;-68
2021/01/28 09:32:14;;;;;;;12.00;6.43;;;;;;;3.21;48.37;96444.13;4966048;28;20034;-65
2021/01/28 09:34:40;;;;;;;12.32;6.18;;;;;;;2.39;50.37;96395.84;4971752;28;20061;-67
2021/01/28 09:37:14;;;;;;;14.02;6.18;;;;;;;2.55;50.33;96404.22;4984163;28;20481;-62
2021/01/28 09:39:52;;;;;;;11.27;6.53;;;;;;;1.94;50.61;96312.16;4998887;28;20046;-64
2021/01/28 09:42:30;;;;;;;14.63;7.32;;;;;;;3.19;49.12;96435.47;4983525;28;20473;-62
2021/01/28 09:45:05;;;;;;;13.80;7.07;;;;;;;3.47;47.82;96428.25;4982648;28;20452;-64
2021/01/28 09:47:31;;;;;;;13.23;7.28;;;;;;;2.80;48.41;96411.38;4983890;28;20463;-63
2021/01/28 09:50:08;;;;;;;16.52;8.70;;;;;;;3.79;47.51;96432.84;4983392;28;20065;-64
2021/01/28 09:52:37;;;;;;;11.98;7.07;;;;;;;3.80;47.56;96344.06;4984308;28;20027;-60
2021/01/28 09:55:05;;;;;;;14.50;7.82;;;;;;;4.66;45.78;96423.81;4984598;28;20525;-66
2021/01/28 09:57:31;;;;;;;12.35;7.00;;;;;;;4.98;41.61;96407.47;4985163;28;20175;-67
2021/01/28 09:59:59;;;;;;;16.73;8.50;;;;;;;5.35;41.64;96422.59;4984080;28;20600;-74
2021/01/28 10:02:39;;;;;;;13.95;7.50;;;;;;;5.28;40.29;96382.03;4984441;28;20077;-64
2021/01/28 10:05:05;;;;;;;15.23;8.63;;;;;;;5.76;41.82;96416.63;4984525;28;20034;-64
2021/01/28 10:07:31;;;;;;;13.20;8.07;;;;;;;3.95;39.27;96069.41;4979861;28;20103;-66
2021/01/28 10:09:56;;;;;;;10.20;5.60;;;;;;;6.38;37.19;96411.09;4983020;28;20038;-63
2021/01/28 10:12:25;;;;;;;8.75;5.38;;;;;;;6.42;37.33;96362.44;4984759;28;20077;-63
2021/01/28 10:14:51;;;;;;;10.02;4.95;;;;;;;6.42;37.02;96378.94;4975365;28;20054;-63
2021/01/28 10:17:17;;;;;;;18.60;6.95;;;;;;;6.59;37.59;96400.53;4983589;28;20139;-63
2021/01/28 10:19:44;;;;;;;12.00;6.65;;;;;;;6.70;37.29;96411.78;4984405;28;20065;-63
2021/01/28 10:22:15;;;;;;;9.55;6.07;;;;;;;6.46;37.06;96385.34;4981259;28;20054;-63
2021/01/28 10:24:41;;;;;;;11.60;6.18;;;;;;;6.18;36.70;96351.69;4983849;28;20037;-64
2021/01/28 10:27:07;;;;;;;9.68;5.93;;;;;;;6.69;37.07;96413.72;4984259;28;20039;-64
2021/01/28 10:29:33;;;;;;;11.85;5.55;;;;;;;6.53;36.60;96390.19;4984499;28;20508;-63
2021/01/28 10:31:59;;;;;;;12.98;5.82;;;;;;;6.79;37.37;96388.41;4983137;28;20030;-63
2021/01/28 10:34:24;;;;;;;8.80;4.90;;;;;;;7.05;35.94;96396.78;4982146;28;20117;-63
2021/01/28 10:36:50;;;;;;;11.55;5.50;;;;;;;6.83;35.01;96328.72;4984240;28;20037;-62
2021/01/28 10:39:17;;;;;;;16.58;8.00;;;;;;;7.25;36.42;96394.81;4983613;28;20117;-62
2021/01/28 10:41:43;;;;;;;27.30;11.75;;;;;;;7.24;37.47;96366.47;4983906;28;20242;-66
2021/01/28 10:44:08;;;;;;;38.70;16.33;;;;;;;7.46;37.21;96396.00;4984123;28;20045;-62
2021/01/28 10:46:34;;;;;;;33.90;14.05;;;;;;;6.73;36.46;96340.31;4986366;28;20042;-68
2021/01/28 10:48:59;;;;;;;8.20;5.07;;;;;;;7.16;34.81;96403.28;4987944;28;20520;-63
2021/01/28 10:51:25;;;;;;;13.38;7.03;;;;;;;6.61;35.95;96263.41;4970692;28;20420;-65
2021/01/28 10:53:50;;;;;;;10.57;6.43;;;;;;;6.74;36.62;96248.34;4969067;28;20049;-64
2021/01/28 10:56:16;;;;;;;10.35;5.90;;;;;;;3.69;35.17;95764.38;4968938;28;20062;-63
2021/01/28 10:58:41;;;;;;;21.50;9.93;;;;;;;7.76;36.32;96381.56;4968662;28;20113;-65
2021/01/28 11:01:06;;;;;;;16.75;7.32;;;;;;;7.58;35.21;96382.06;4968405;28;20481;-63
2021/01/28 11:03:35;;;;;;;10.30;5.22;;;;;;;7.22;35.11;96379.03;4977732;28;20045;-62
2021/01/28 11:06:00;;;;;;;16.65;8.07;;;;;;;5.79;34.11;96130.16;4987061;28;20480;-67
2021/01/28 11:08:27;;;;;;;9.75;5.43;;;;;;;6.92;35.80;96376.09;4987859;28;20027;-69
2021/01/28 11:10:53;;;;;;;15.05;7.30;;;;;;;6.88;35.93;96377.97;4987225;28;20041;-63
2021/01/28 11:13:18;;;;;;;7.90;3.97;;;;;;;5.95;34.54;96288.38;4987259;28;20023;-64
2021/01/28 11:15:44;;;;;;;14.75;6.55;;;;;;;6.52;36.42;96383.88;4986966;28;20472;-67
2021/01/28 11:18:11;;;;;;;24.73;9.15;;;;;;;6.03;36.12;96328.59;4987276;28;20053;-67
2021/01/28 11:20:37;;;;;;;12.52;6.72;;;;;;;6.68;36.01;96395.63;4987424;28;20026;-71
2021/01/28 11:23:03;;;;;;;10.68;6.57;;;;;;;6.09;37.71;96356.59;4986895;28;20034;-65
2021/01/28 11:25:29;;;;;;;9.40;5.80;;;;;;;6.36;37.35;96391.38;4987409;28;20073;-67
2021/01/28 11:27:55;;;;;;;5.20;3.70;;;;;;;6.36;34.58;96388.63;4982554;28;20027;-66
2021/01/28 11:30:26;;;;;;;9.65;4.63;;;;;;;6.82;36.24;96381.38;4978980;28;20042;-68
2021/01/28 11:32:52;;;;;;;8.52;4.50;;;;;;;6.91;34.65;96391.00;4986155;28;20034;-71
2021/01/28 11:35:21;;;;;;;9.70;4.82;;;;;;;7.26;34.58;96386.19;4987120;28;20117;-69
2021/01/28 11:37:47;;;;;;;6.45;3.88;;;;;;;7.06;33.19;96375.56;4985220;28;20049;-66
2021/01/28 11:40:16;;;;;;;11.93;6.03;;;;;;;6.03;34.43;96202.16;4983765;28;20643;-68